BON371R FOOL-FALE
Flight info
| Callsign | BON371R |
|---|---|
| Flight time | 4h 48m |
| Altitude | 35000 |
| Route | PILVI1S PILVI UR526 VNA UT942 ARGOL UN187 UVAMO UT942 EPNON/N0473F370 UT942 UTVIN UM998 XOXAM UL435 EPNUP DCT APDAK UQ48 APMAT APMAT1A |
| Aircraft | A343/H-SDE2E3FGHIJ4J5M1RWXY/LB1D1 |
Departure
| Time | 2026-04-24 19:30 |
|---|---|
| Airport | Libreville Leon M'ba International Airport (FOOL) |
Arrival
| Time | 2026-04-25 00:19 |
|---|---|
| Airport | King Shaka International Airport (FALE) |
| Time | Latitude | Longitude | Altitude | Speed | Heading |
|---|---|---|---|---|---|
| 2026-04-24 18:55 | 0.45422 | 9.41235 | 39 ft | 0 kts | 220° |
| 2026-04-24 19:20 | 0.45439 | 9.41249 | 37 ft | 4 kts | 222° |
| 2026-04-24 19:20 | 0.45458 | 9.41266 | 38 ft | 3 kts | 228° |
| 2026-04-24 19:20 | 0.45468 | 9.41278 | 38 ft | 2 kts | 256° |
| 2026-04-24 19:20 | 0.45470 | 9.41289 | 37 ft | 2 kts | 319° |
| 2026-04-24 19:21 | 0.45461 | 9.41296 | 38 ft | 2 kts | 329° |
| 2026-04-24 19:21 | 0.45452 | 9.41301 | 38 ft | 2 kts | 337° |
| 2026-04-24 19:21 | 0.45443 | 9.41305 | 38 ft | 0 kts | 336° |
| 2026-04-24 19:23 | 0.45449 | 9.41303 | 38 ft | 4 kts | 336° |
| 2026-04-24 19:24 | 0.45500 | 9.41279 | 38 ft | 12 kts | 334° |
| 2026-04-24 19:24 | 0.45581 | 9.41240 | 38 ft | 13 kts | 334° |
| 2026-04-24 19:24 | 0.45664 | 9.41200 | 38 ft | 13 kts | 334° |
| 2026-04-24 19:24 | 0.45742 | 9.41161 | 38 ft | 12 kts | 334° |
| 2026-04-24 19:25 | 0.45753 | 9.41156 | 38 ft | 0 kts | 334° |
| 2026-04-24 19:25 | 0.45754 | 9.41155 | 38 ft | 2 kts | 334° |
| 2026-04-24 19:25 | 0.45796 | 9.41165 | 38 ft | 8 kts | 37° |
| 2026-04-24 19:26 | 0.45865 | 9.41218 | 37 ft | 16 kts | 13° |
| 2026-04-24 19:26 | 0.45953 | 9.41188 | 37 ft | 13 kts | 333° |
| 2026-04-24 19:26 | 0.46054 | 9.41139 | 37 ft | 17 kts | 334° |
| 2026-04-24 19:26 | 0.46157 | 9.41089 | 38 ft | 16 kts | 334° |
| 2026-04-24 19:27 | 0.46251 | 9.41043 | 39 ft | 15 kts | 334° |
| 2026-04-24 19:27 | 0.46342 | 9.40999 | 39 ft | 16 kts | 334° |
| 2026-04-24 19:27 | 0.46460 | 9.40943 | 41 ft | 26 kts | 334° |
| 2026-04-24 19:27 | 0.46642 | 9.40856 | 40 ft | 29 kts | 334° |
| 2026-04-24 19:28 | 0.46820 | 9.40770 | 40 ft | 28 kts | 334° |
| 2026-04-24 19:28 | 0.46975 | 9.40695 | 38 ft | 21 kts | 329° |
| 2026-04-24 19:28 | 0.47030 | 9.40638 | 38 ft | 5 kts | 317° |
| 2026-04-24 19:28 | 0.47051 | 9.40649 | 38 ft | 3 kts | 73° |
| 2026-04-24 19:29 | 0.46999 | 9.40685 | 38 ft | 17 kts | 153° |
| 2026-04-24 19:29 | 0.46842 | 9.40761 | 40 ft | 59 kts | 154° |
| 2026-04-24 19:29 | 0.46280 | 9.41031 | 39 ft | 119 kts | 154° |
| 2026-04-24 19:30 | 0.45376 | 9.41464 | 38 ft | 168 kts | 154° |
| 2026-04-24 19:30 | 0.44285 | 9.41984 | 638 ft | 163 kts | 154° |
| 2026-04-24 19:30 | 0.43248 | 9.42092 | 1323 ft | 159 kts | 205° |
| 2026-04-24 19:30 | 0.42429 | 9.41262 | 1576 ft | 184 kts | 247° |
| 2026-04-24 19:31 | 0.42032 | 9.39987 | 1866 ft | 200 kts | 247° |
| 2026-04-24 19:31 | 0.41338 | 9.38734 | 2137 ft | 213 kts | 236° |
| 2026-04-24 19:31 | 0.40439 | 9.37487 | 2360 ft | 232 kts | 232° |
| 2026-04-24 19:31 | 0.39399 | 9.36168 | 2665 ft | 249 kts | 230° |
| 2026-04-24 19:32 | 0.38282 | 9.34803 | 3179 ft | 256 kts | 230° |
| 2026-04-24 19:32 | 0.37131 | 9.33422 | 3784 ft | 261 kts | 230° |
| 2026-04-24 19:32 | 0.35956 | 9.32020 | 4349 ft | 266 kts | 229° |
| 2026-04-24 19:32 | 0.34582 | 9.30769 | 4901 ft | 271 kts | 210° |
| 2026-04-24 19:33 | 0.32799 | 9.30187 | 5474 ft | 274 kts | 183° |
| 2026-04-24 19:33 | 0.30931 | 9.30512 | 6007 ft | 277 kts | 155° |
| 2026-04-24 19:33 | 0.29274 | 9.31510 | 6593 ft | 279 kts | 145° |
| 2026-04-24 19:33 | 0.27682 | 9.32643 | 7150 ft | 282 kts | 144° |
| 2026-04-24 19:34 | 0.26078 | 9.33783 | 7712 ft | 284 kts | 144° |
| 2026-04-24 19:34 | 0.24455 | 9.34931 | 8243 ft | 287 kts | 144° |
| 2026-04-24 19:34 | 0.22810 | 9.36086 | 8807 ft | 289 kts | 144° |
| 2026-04-24 19:34 | 0.21156 | 9.37244 | 9350 ft | 292 kts | 145° |
| 2026-04-24 19:35 | 0.19482 | 9.38412 | 9857 ft | 295 kts | 144° |
| 2026-04-24 19:35 | 0.17778 | 9.39601 | 10227 ft | 305 kts | 144° |
| 2026-04-24 19:35 | 0.16003 | 9.40837 | 10473 ft | 318 kts | 144° |
| 2026-04-24 19:35 | 0.14109 | 9.42066 | 10723 ft | 331 kts | 150° |
| 2026-04-24 19:36 | 0.12012 | 9.43115 | 10962 ft | 343 kts | 154° |
| 2026-04-24 19:36 | 0.09810 | 9.44125 | 11182 ft | 355 kts | 154° |
| 2026-04-24 19:36 | 0.07526 | 9.45165 | 11408 ft | 366 kts | 154° |
| 2026-04-24 19:36 | 0.05179 | 9.46237 | 11620 ft | 376 kts | 154° |
| 2026-04-24 19:37 | 0.02780 | 9.47335 | 11942 ft | 382 kts | 154° |
| 2026-04-24 19:37 | 0.00391 | 9.48428 | 12326 ft | 385 kts | 154° |
| 2026-04-24 19:37 | -0.02053 | 9.49543 | 12740 ft | 388 kts | 154° |
| 2026-04-24 19:37 | -0.04512 | 9.50669 | 13177 ft | 389 kts | 154° |
| 2026-04-24 19:38 | -0.06978 | 9.51804 | 13614 ft | 391 kts | 154° |
| 2026-04-24 19:38 | -0.09453 | 9.52942 | 14033 ft | 393 kts | 154° |
| 2026-04-24 19:38 | -0.11942 | 9.54086 | 14462 ft | 394 kts | 154° |
| 2026-04-24 19:38 | -0.14445 | 9.55235 | 14872 ft | 397 kts | 154° |
| 2026-04-24 19:39 | -0.16961 | 9.56390 | 15285 ft | 398 kts | 154° |
| 2026-04-24 19:39 | -0.19485 | 9.57547 | 15706 ft | 400 kts | 154° |
| 2026-04-24 19:39 | -0.22017 | 9.58709 | 16094 ft | 402 kts | 154° |
| 2026-04-24 19:39 | -0.24564 | 9.59879 | 16503 ft | 403 kts | 154° |
| 2026-04-24 19:40 | -0.27118 | 9.61051 | 16917 ft | 405 kts | 154° |
| 2026-04-24 19:40 | -0.29683 | 9.62232 | 17294 ft | 407 kts | 154° |
| 2026-04-24 19:40 | -0.32264 | 9.63418 | 17684 ft | 410 kts | 154° |
| 2026-04-24 19:40 | -0.34855 | 9.64605 | 18106 ft | 411 kts | 154° |
| 2026-04-24 19:41 | -0.37457 | 9.65799 | 18503 ft | 413 kts | 154° |
| 2026-04-24 19:41 | -0.40075 | 9.67000 | 18857 ft | 415 kts | 154° |
| 2026-04-24 19:41 | -0.42710 | 9.68208 | 19210 ft | 418 kts | 154° |
| 2026-04-24 19:41 | -0.45360 | 9.69425 | 19558 ft | 421 kts | 154° |
| 2026-04-24 19:42 | -0.48028 | 9.70648 | 19900 ft | 423 kts | 154° |
| 2026-04-24 19:42 | -0.50708 | 9.71878 | 20244 ft | 425 kts | 154° |
| 2026-04-24 19:42 | -0.53405 | 9.73116 | 20569 ft | 428 kts | 154° |
| 2026-04-24 19:42 | -0.56114 | 9.74361 | 20891 ft | 430 kts | 154° |
| 2026-04-24 19:43 | -0.58841 | 9.75612 | 21235 ft | 431 kts | 154° |
| 2026-04-24 19:43 | -0.61574 | 9.76867 | 21534 ft | 434 kts | 154° |
| 2026-04-24 19:43 | -0.64328 | 9.78131 | 21804 ft | 437 kts | 154° |
| 2026-04-24 19:43 | -0.67098 | 9.79402 | 22102 ft | 439 kts | 154° |
| 2026-04-24 19:44 | -0.69885 | 9.80682 | 22421 ft | 441 kts | 154° |
| 2026-04-24 19:44 | -0.72675 | 9.81963 | 22712 ft | 443 kts | 154° |
| 2026-04-24 19:44 | -0.75488 | 9.83254 | 22989 ft | 445 kts | 154° |
| 2026-04-24 19:44 | -0.78308 | 9.84548 | 23246 ft | 447 kts | 154° |
| 2026-04-24 19:45 | -0.81141 | 9.85856 | 23509 ft | 449 kts | 154° |
| 2026-04-24 19:45 | -0.83983 | 9.87177 | 23776 ft | 451 kts | 154° |
| 2026-04-24 19:45 | -0.86838 | 9.88505 | 24031 ft | 453 kts | 154° |
| 2026-04-24 19:45 | -0.89702 | 9.89837 | 24276 ft | 455 kts | 154° |
| 2026-04-24 19:46 | -0.92573 | 9.91172 | 24526 ft | 457 kts | 154° |
| 2026-04-24 19:46 | -0.95467 | 9.92515 | 24787 ft | 459 kts | 154° |
| 2026-04-24 19:46 | -0.98372 | 9.93864 | 25023 ft | 461 kts | 154° |
| 2026-04-24 19:46 | -1.01286 | 9.95217 | 25237 ft | 463 kts | 154° |
| 2026-04-24 19:47 | -1.04219 | 9.96579 | 25472 ft | 465 kts | 154° |
| 2026-04-24 19:47 | -1.07157 | 9.97943 | 25714 ft | 467 kts | 154° |
| 2026-04-24 19:47 | -1.10067 | 9.99294 | 25940 ft | 468 kts | 154° |
| 2026-04-24 19:47 | -1.13027 | 10.00668 | 26192 ft | 470 kts | 154° |
| 2026-04-24 19:48 | -1.15994 | 10.02047 | 26443 ft | 471 kts | 154° |
| 2026-04-24 19:48 | -1.18967 | 10.03428 | 26661 ft | 472 kts | 154° |
| 2026-04-24 19:48 | -1.24950 | 10.06207 | 27094 ft | 476 kts | 154° |
| 2026-04-24 19:49 | -1.30919 | 10.09121 | 27520 ft | 479 kts | 152° |
| 2026-04-24 19:49 | -1.36906 | 10.12078 | 27936 ft | 482 kts | 153° |
| 2026-04-24 19:50 | -1.45978 | 10.16537 | 28554 ft | 486 kts | 153° |
| 2026-04-24 19:50 | -1.49019 | 10.18030 | 28752 ft | 488 kts | 153° |
| 2026-04-24 19:51 | -1.55125 | 10.21029 | 29176 ft | 489 kts | 153° |
| 2026-04-24 19:51 | -1.58174 | 10.22525 | 29487 ft | 488 kts | 153° |
| 2026-04-24 19:52 | -1.64259 | 10.25512 | 30045 ft | 487 kts | 153° |
| 2026-04-24 19:52 | -1.67297 | 10.27003 | 30315 ft | 486 kts | 153° |
| 2026-04-24 19:52 | -1.70340 | 10.28497 | 30503 ft | 487 kts | 153° |
| 2026-04-24 19:52 | -1.73384 | 10.29991 | 30727 ft | 487 kts | 153° |
| 2026-04-24 19:53 | -1.76423 | 10.31483 | 30953 ft | 487 kts | 153° |
| 2026-04-24 19:53 | -1.79468 | 10.32978 | 31170 ft | 488 kts | 153° |
| 2026-04-24 19:53 | -1.85557 | 10.35962 | 31607 ft | 488 kts | 154° |
| 2026-04-24 19:54 | -1.88654 | 10.37342 | 31808 ft | 488 kts | 156° |
| 2026-04-24 19:54 | -1.91804 | 10.38619 | 32010 ft | 489 kts | 158° |
| 2026-04-24 19:54 | -1.94970 | 10.39858 | 32223 ft | 488 kts | 158° |
| 2026-04-24 19:54 | -1.98134 | 10.41094 | 32403 ft | 488 kts | 158° |
| 2026-04-24 19:55 | -2.00225 | 10.41919 | 32523 ft | 489 kts | 158° |
| 2026-04-24 19:55 | -2.04450 | 10.43609 | 32767 ft | 489 kts | 158° |
| 2026-04-24 19:55 | -2.07606 | 10.44889 | 32877 ft | 490 kts | 157° |
| 2026-04-24 19:56 | -2.13873 | 10.47458 | 32886 ft | 489 kts | 157° |
| 2026-04-24 19:56 | -2.20157 | 10.50041 | 32887 ft | 488 kts | 157° |
| 2026-04-24 19:57 | -2.24670 | 10.51895 | 32885 ft | 488 kts | 157° |
| 2026-04-24 19:57 | -2.29182 | 10.53747 | 32885 ft | 488 kts | 157° |
| 2026-04-24 19:58 | -2.35465 | 10.56325 | 32884 ft | 488 kts | 157° |
| 2026-04-24 19:58 | -2.41749 | 10.58901 | 32884 ft | 488 kts | 157° |
| 2026-04-24 19:59 | -2.48027 | 10.61479 | 32903 ft | 487 kts | 157° |
| 2026-04-24 19:59 | -2.54291 | 10.64054 | 32884 ft | 487 kts | 157° |
| 2026-04-24 20:00 | -2.60560 | 10.66627 | 32886 ft | 487 kts | 157° |
| 2026-04-24 20:00 | -2.66820 | 10.69197 | 32885 ft | 486 kts | 157° |
| 2026-04-24 20:01 | -2.73072 | 10.71764 | 32885 ft | 485 kts | 157° |
| 2026-04-24 20:01 | -2.79324 | 10.74330 | 32894 ft | 486 kts | 157° |
| 2026-04-24 20:02 | -2.84523 | 10.76465 | 32900 ft | 485 kts | 157° |
| 2026-04-24 20:02 | -2.91821 | 10.79464 | 32886 ft | 485 kts | 157° |
| 2026-04-24 20:03 | -2.98066 | 10.82029 | 32886 ft | 485 kts | 157° |
| 2026-04-24 20:03 | -3.04302 | 10.84590 | 32888 ft | 484 kts | 157° |
| 2026-04-24 20:04 | -3.10538 | 10.87152 | 32887 ft | 484 kts | 157° |
| 2026-04-24 20:04 | -3.16764 | 10.89716 | 32885 ft | 484 kts | 157° |
| 2026-04-24 20:05 | -3.22950 | 10.92256 | 32885 ft | 483 kts | 157° |
| 2026-04-24 20:05 | -3.29171 | 10.94807 | 32886 ft | 483 kts | 157° |
| 2026-04-24 20:06 | -3.35392 | 10.97363 | 32886 ft | 484 kts | 157° |
| 2026-04-24 20:06 | -3.41614 | 10.99923 | 32886 ft | 483 kts | 157° |
| 2026-04-24 20:07 | -3.46785 | 11.02052 | 32885 ft | 483 kts | 157° |
| 2026-04-24 20:07 | -3.51994 | 11.04196 | 32883 ft | 483 kts | 157° |
| 2026-04-24 20:08 | -3.59022 | 11.07086 | 32886 ft | 483 kts | 157° |
| 2026-04-24 20:08 | -3.65235 | 11.09642 | 32885 ft | 483 kts | 157° |
| 2026-04-24 20:09 | -3.71443 | 11.12196 | 32886 ft | 482 kts | 157° |
| 2026-04-24 20:09 | -3.77652 | 11.14749 | 32888 ft | 482 kts | 157° |
| 2026-04-24 20:10 | -3.83854 | 11.17301 | 32896 ft | 482 kts | 157° |
| 2026-04-24 20:10 | -3.90051 | 11.19853 | 32888 ft | 482 kts | 157° |
| 2026-04-24 20:11 | -3.96252 | 11.22405 | 32903 ft | 481 kts | 157° |
| 2026-04-24 20:11 | -4.02440 | 11.24955 | 32885 ft | 481 kts | 156° |
| 2026-04-24 20:12 | -4.08624 | 11.27499 | 32888 ft | 481 kts | 156° |
| 2026-04-24 20:12 | -4.13768 | 11.29616 | 32887 ft | 481 kts | 156° |
| 2026-04-24 20:13 | -4.20960 | 11.32579 | 32903 ft | 481 kts | 156° |
| 2026-04-24 20:13 | -4.27148 | 11.35131 | 32885 ft | 481 kts | 156° |
| 2026-04-24 20:14 | -4.33342 | 11.37684 | 32884 ft | 481 kts | 156° |
| 2026-04-24 20:14 | -4.39523 | 11.40231 | 32885 ft | 480 kts | 156° |
| 2026-04-24 20:15 | -4.45704 | 11.42778 | 32886 ft | 480 kts | 156° |
| 2026-04-24 20:15 | -4.51890 | 11.45328 | 32886 ft | 480 kts | 156° |
| 2026-04-24 20:16 | -4.58079 | 11.47878 | 32884 ft | 481 kts | 156° |
| 2026-04-24 20:16 | -4.64259 | 11.50427 | 32885 ft | 481 kts | 156° |
| 2026-04-24 20:17 | -4.69442 | 11.52565 | 32887 ft | 480 kts | 156° |
| 2026-04-24 20:17 | -4.78679 | 11.56376 | 32887 ft | 481 kts | 156° |
| 2026-04-24 20:18 | -4.84866 | 11.58930 | 32886 ft | 481 kts | 156° |
| 2026-04-24 20:18 | -4.91054 | 11.61486 | 32887 ft | 481 kts | 156° |
| 2026-04-24 20:19 | -4.97245 | 11.64041 | 32886 ft | 480 kts | 156° |
| 2026-04-24 20:19 | -5.03428 | 11.66593 | 32886 ft | 481 kts | 156° |
| 2026-04-24 20:20 | -5.09611 | 11.69148 | 32892 ft | 481 kts | 156° |
| 2026-04-24 20:20 | -5.15804 | 11.71705 | 32885 ft | 481 kts | 156° |
| 2026-04-24 20:21 | -5.21991 | 11.74253 | 32884 ft | 481 kts | 156° |
| 2026-04-24 20:21 | -5.28177 | 11.76802 | 32887 ft | 481 kts | 156° |
| 2026-04-24 20:22 | -5.34364 | 11.79351 | 32900 ft | 481 kts | 156° |
| 2026-04-24 20:22 | -5.40548 | 11.81900 | 32885 ft | 481 kts | 156° |
| 2026-04-24 20:23 | -5.46730 | 11.84449 | 32887 ft | 480 kts | 156° |
| 2026-04-24 20:23 | -5.52908 | 11.86999 | 32886 ft | 480 kts | 156° |
| 2026-04-24 20:24 | -5.59089 | 11.89549 | 32887 ft | 480 kts | 156° |
| 2026-04-24 20:24 | -5.65267 | 11.92097 | 32887 ft | 480 kts | 156° |
| 2026-04-24 20:25 | -5.71451 | 11.94648 | 32885 ft | 480 kts | 156° |
| 2026-04-24 20:25 | -5.77628 | 11.97199 | 32886 ft | 480 kts | 156° |
| 2026-04-24 20:26 | -5.83796 | 11.99745 | 32904 ft | 480 kts | 156° |
| 2026-04-24 20:26 | -5.89982 | 12.02300 | 32887 ft | 480 kts | 156° |
| 2026-04-24 20:27 | -5.96154 | 12.04850 | 32887 ft | 480 kts | 156° |
| 2026-04-24 20:27 | -6.02333 | 12.07403 | 32886 ft | 480 kts | 156° |
| 2026-04-24 20:28 | -6.08507 | 12.09954 | 32904 ft | 480 kts | 156° |
| 2026-04-24 20:28 | -6.14691 | 12.12510 | 32887 ft | 480 kts | 156° |
| 2026-04-24 20:29 | -6.20823 | 12.15047 | 32886 ft | 480 kts | 156° |
| 2026-04-24 20:29 | -6.27000 | 12.17602 | 32887 ft | 480 kts | 156° |
| 2026-04-24 20:30 | -6.33176 | 12.20156 | 32887 ft | 480 kts | 156° |
| 2026-04-24 20:30 | -6.39350 | 12.22712 | 32887 ft | 480 kts | 156° |
| 2026-04-24 20:31 | -6.45529 | 12.25271 | 32888 ft | 480 kts | 156° |
| 2026-04-24 20:31 | -6.51706 | 12.27828 | 32887 ft | 480 kts | 156° |
| 2026-04-24 20:32 | -6.57888 | 12.30388 | 32890 ft | 480 kts | 156° |
| 2026-04-24 20:32 | -6.64070 | 12.32948 | 32893 ft | 480 kts | 156° |
| 2026-04-24 20:33 | -6.70249 | 12.35508 | 32902 ft | 481 kts | 156° |
| 2026-04-24 20:33 | -6.76438 | 12.38075 | 32897 ft | 481 kts | 156° |
| 2026-04-24 20:34 | -6.82620 | 12.40639 | 32890 ft | 481 kts | 156° |
| 2026-04-24 20:34 | -6.88814 | 12.43208 | 32900 ft | 481 kts | 156° |
| 2026-04-24 20:35 | -6.95007 | 12.45777 | 32893 ft | 482 kts | 156° |
| 2026-04-24 20:35 | -7.01200 | 12.48349 | 32897 ft | 481 kts | 156° |
| 2026-04-24 20:36 | -7.07380 | 12.50913 | 32901 ft | 481 kts | 156° |
| 2026-04-24 20:36 | -7.13575 | 12.53482 | 32905 ft | 481 kts | 156° |
| 2026-04-24 20:37 | -7.19773 | 12.56053 | 32912 ft | 481 kts | 156° |
| 2026-04-24 20:37 | -7.25964 | 12.58622 | 32903 ft | 481 kts | 156° |
| 2026-04-24 20:38 | -7.32152 | 12.61189 | 32907 ft | 482 kts | 156° |
| 2026-04-24 20:38 | -7.38355 | 12.63764 | 32912 ft | 482 kts | 156° |
| 2026-04-24 20:39 | -7.44556 | 12.66340 | 32904 ft | 482 kts | 156° |
| 2026-04-24 20:39 | -7.50746 | 12.68913 | 32904 ft | 482 kts | 156° |
| 2026-04-24 20:40 | -7.56953 | 12.71495 | 32907 ft | 482 kts | 156° |
| 2026-04-24 20:40 | -7.63148 | 12.74069 | 32911 ft | 482 kts | 156° |
| 2026-04-24 20:41 | -7.69338 | 12.76644 | 32900 ft | 482 kts | 156° |
| 2026-04-24 20:41 | -7.75545 | 12.79226 | 32911 ft | 482 kts | 156° |
| 2026-04-24 20:42 | -7.81983 | 12.81906 | 32912 ft | 482 kts | 156° |
| 2026-04-24 20:42 | -7.88186 | 12.84489 | 32902 ft | 482 kts | 156° |
| 2026-04-24 20:43 | -7.94380 | 12.87068 | 32907 ft | 482 kts | 156° |
| 2026-04-24 20:43 | -8.00586 | 12.89653 | 32906 ft | 482 kts | 156° |
| 2026-04-24 20:44 | -8.06787 | 12.92237 | 32902 ft | 482 kts | 156° |
| 2026-04-24 20:44 | -8.12986 | 12.94821 | 32899 ft | 482 kts | 156° |
| 2026-04-24 20:45 | -8.19187 | 12.97406 | 32910 ft | 482 kts | 156° |
| 2026-04-24 20:45 | -8.24344 | 12.99560 | 32900 ft | 482 kts | 156° |
| 2026-04-24 20:46 | -8.30534 | 13.02142 | 32912 ft | 482 kts | 156° |
| 2026-04-24 20:46 | -8.36730 | 13.04727 | 32902 ft | 482 kts | 156° |
| 2026-04-24 20:47 | -8.42926 | 13.07314 | 32905 ft | 482 kts | 156° |
| 2026-04-24 20:47 | -8.50127 | 13.10322 | 32914 ft | 482 kts | 156° |
| 2026-04-24 20:48 | -8.55309 | 13.12488 | 32913 ft | 482 kts | 156° |
| 2026-04-24 20:48 | -8.61504 | 13.15078 | 32917 ft | 482 kts | 156° |
| 2026-04-24 20:49 | -8.67700 | 13.17670 | 32913 ft | 482 kts | 156° |
| 2026-04-24 20:49 | -8.73886 | 13.20256 | 32919 ft | 481 kts | 156° |
| 2026-04-24 20:50 | -8.80074 | 13.22846 | 32918 ft | 481 kts | 156° |
| 2026-04-24 20:50 | -8.86311 | 13.25197 | 32920 ft | 482 kts | 162° |
| 2026-04-24 20:51 | -8.92737 | 13.27137 | 32921 ft | 482 kts | 163° |
| 2026-04-24 20:51 | -8.99183 | 13.29006 | 32920 ft | 482 kts | 163° |
| 2026-04-24 20:52 | -9.05629 | 13.30871 | 32910 ft | 482 kts | 163° |
| 2026-04-24 20:52 | -9.12060 | 13.32742 | 32917 ft | 481 kts | 163° |
| 2026-04-24 20:53 | -9.18504 | 13.34623 | 32916 ft | 481 kts | 163° |
| 2026-04-24 20:53 | -9.24934 | 13.36500 | 32909 ft | 481 kts | 163° |
| 2026-04-24 20:54 | -9.31371 | 13.38377 | 32911 ft | 481 kts | 163° |
| 2026-04-24 20:54 | -9.37801 | 13.40256 | 32901 ft | 480 kts | 163° |
| 2026-04-24 20:55 | -9.44219 | 13.42133 | 32912 ft | 480 kts | 163° |
| 2026-04-24 20:55 | -9.50643 | 13.44011 | 32908 ft | 480 kts | 163° |
| 2026-04-24 20:56 | -9.57059 | 13.45886 | 32906 ft | 480 kts | 163° |
| 2026-04-24 20:56 | -9.63469 | 13.47761 | 32911 ft | 480 kts | 163° |
| 2026-04-24 20:57 | -9.69891 | 13.49644 | 32921 ft | 480 kts | 163° |
| 2026-04-24 20:57 | -9.76304 | 13.51521 | 32923 ft | 480 kts | 163° |
| 2026-04-24 20:58 | -9.82720 | 13.53399 | 32924 ft | 480 kts | 163° |
| 2026-04-24 20:58 | -9.89127 | 13.55277 | 32924 ft | 480 kts | 163° |
| 2026-04-24 20:59 | -9.95538 | 13.57157 | 32924 ft | 480 kts | 163° |
| 2026-04-24 20:59 | -10.01944 | 13.59036 | 32924 ft | 479 kts | 163° |
| 2026-04-24 21:00 | -10.08361 | 13.60919 | 32930 ft | 480 kts | 163° |
| 2026-04-24 21:00 | -10.14776 | 13.62805 | 32934 ft | 480 kts | 163° |
| 2026-04-24 21:01 | -10.21185 | 13.64695 | 32934 ft | 480 kts | 163° |
| 2026-04-24 21:01 | -10.27591 | 13.66590 | 32934 ft | 480 kts | 163° |
| 2026-04-24 21:02 | -10.34002 | 13.68486 | 32936 ft | 480 kts | 163° |
| 2026-04-24 21:02 | -10.40403 | 13.70382 | 32934 ft | 480 kts | 163° |
| 2026-04-24 21:03 | -10.46810 | 13.72278 | 32936 ft | 479 kts | 163° |
| 2026-04-24 21:03 | -10.53214 | 13.74175 | 32943 ft | 479 kts | 163° |
| 2026-04-24 21:04 | -10.59633 | 13.76076 | 32943 ft | 480 kts | 163° |
| 2026-04-24 21:04 | -10.66042 | 13.77974 | 32942 ft | 480 kts | 163° |
| 2026-04-24 21:05 | -10.72457 | 13.79876 | 32944 ft | 480 kts | 163° |
| 2026-04-24 21:05 | -10.78523 | 13.82619 | 32944 ft | 478 kts | 146° |
| 2026-04-24 21:06 | -10.83740 | 13.86723 | 32943 ft | 478 kts | 140° |
| 2026-04-24 21:06 | -10.88795 | 13.91117 | 32943 ft | 479 kts | 139° |
| 2026-04-24 21:07 | -10.93838 | 13.95556 | 32942 ft | 479 kts | 139° |
| 2026-04-24 21:07 | -10.98892 | 13.99975 | 32944 ft | 479 kts | 139° |
| 2026-04-24 21:08 | -11.03965 | 14.04393 | 32953 ft | 480 kts | 139° |
| 2026-04-24 21:08 | -11.09045 | 14.08811 | 32953 ft | 480 kts | 140° |
| 2026-04-24 21:09 | -11.14126 | 14.13232 | 32952 ft | 481 kts | 139° |
| 2026-04-24 21:09 | -11.19216 | 14.17665 | 32953 ft | 481 kts | 140° |
| 2026-04-24 21:10 | -11.24306 | 14.22098 | 32953 ft | 481 kts | 140° |
| 2026-04-24 21:10 | -11.29384 | 14.26523 | 32955 ft | 480 kts | 140° |
| 2026-04-24 21:11 | -11.34461 | 14.30950 | 32965 ft | 481 kts | 140° |
| 2026-04-24 21:11 | -11.39546 | 14.35388 | 32959 ft | 481 kts | 140° |
| 2026-04-24 21:12 | -11.43771 | 14.39075 | 32959 ft | 481 kts | 140° |
| 2026-04-24 21:12 | -11.49721 | 14.44269 | 32967 ft | 481 kts | 140° |
| 2026-04-24 21:13 | -11.54806 | 14.48711 | 32971 ft | 481 kts | 140° |
| 2026-04-24 21:13 | -11.59887 | 14.53155 | 32977 ft | 481 kts | 140° |
| 2026-04-24 21:14 | -11.64973 | 14.57603 | 32986 ft | 481 kts | 140° |
| 2026-04-24 21:14 | -11.70024 | 14.62023 | 32998 ft | 482 kts | 140° |
| 2026-04-24 21:15 | -11.75109 | 14.66474 | 32987 ft | 482 kts | 140° |
| 2026-04-24 21:15 | -11.80187 | 14.70923 | 32998 ft | 481 kts | 140° |
| 2026-04-24 21:16 | -11.85264 | 14.75375 | 33007 ft | 481 kts | 140° |
| 2026-04-24 21:16 | -11.90334 | 14.79819 | 33015 ft | 481 kts | 140° |
| 2026-04-24 21:17 | -11.95406 | 14.84267 | 33020 ft | 481 kts | 140° |
| 2026-04-24 21:17 | -11.99623 | 14.87967 | 33033 ft | 481 kts | 140° |
| 2026-04-24 21:18 | -12.05546 | 14.93169 | 33048 ft | 481 kts | 140° |
| 2026-04-24 21:18 | -12.10623 | 14.97632 | 33054 ft | 481 kts | 140° |
| 2026-04-24 21:19 | -12.15704 | 15.02097 | 33063 ft | 482 kts | 140° |
| 2026-04-24 21:19 | -12.20782 | 15.06563 | 33073 ft | 482 kts | 140° |
| 2026-04-24 21:20 | -12.28391 | 15.13259 | 33090 ft | 481 kts | 140° |
| 2026-04-24 21:21 | -12.33460 | 15.17723 | 33100 ft | 481 kts | 140° |
| 2026-04-24 21:21 | -12.38532 | 15.22193 | 33110 ft | 481 kts | 140° |
| 2026-04-24 21:22 | -12.43597 | 15.26658 | 33118 ft | 481 kts | 140° |
| 2026-04-24 21:22 | -12.48657 | 15.31121 | 33128 ft | 481 kts | 140° |
| 2026-04-24 21:23 | -12.53721 | 15.35591 | 33138 ft | 480 kts | 140° |
| 2026-04-24 21:23 | -12.58785 | 15.40063 | 33149 ft | 481 kts | 140° |
| 2026-04-24 21:24 | -12.63849 | 15.44537 | 33145 ft | 481 kts | 140° |
| 2026-04-24 21:24 | -12.68913 | 15.49014 | 33193 ft | 481 kts | 140° |
| 2026-04-24 21:25 | -12.73974 | 15.53492 | 33209 ft | 481 kts | 140° |
| 2026-04-24 21:25 | -12.79040 | 15.57974 | 33213 ft | 481 kts | 140° |
| 2026-04-24 21:26 | -12.84101 | 15.62454 | 33210 ft | 481 kts | 140° |
| 2026-04-24 21:26 | -12.89169 | 15.66942 | 33212 ft | 481 kts | 140° |
| 2026-04-24 21:27 | -12.94234 | 15.71433 | 33212 ft | 482 kts | 140° |
| 2026-04-24 21:27 | -12.99306 | 15.75932 | 33213 ft | 482 kts | 140° |
| 2026-04-24 21:28 | -13.04374 | 15.80430 | 33210 ft | 482 kts | 140° |
| 2026-04-24 21:28 | -13.09445 | 15.84932 | 33211 ft | 482 kts | 140° |
| 2026-04-24 21:29 | -13.14515 | 15.89437 | 33211 ft | 482 kts | 140° |
| 2026-04-24 21:29 | -13.19585 | 15.93943 | 33210 ft | 482 kts | 140° |
| 2026-04-24 21:30 | -13.24661 | 15.98457 | 33210 ft | 483 kts | 140° |
| 2026-04-24 21:30 | -13.28875 | 16.02209 | 33212 ft | 482 kts | 141° |
| 2026-04-24 21:30 | -13.31408 | 16.04464 | 33321 ft | 482 kts | 140° |
| 2026-04-24 21:31 | -13.33943 | 16.06722 | 33510 ft | 482 kts | 140° |
| 2026-04-24 21:31 | -13.36475 | 16.08977 | 33707 ft | 482 kts | 140° |
| 2026-04-24 21:31 | -13.39008 | 16.11234 | 33885 ft | 482 kts | 140° |
| 2026-04-24 21:31 | -13.42357 | 16.14220 | 34138 ft | 481 kts | 140° |
| 2026-04-24 21:32 | -13.44065 | 16.15742 | 34273 ft | 481 kts | 140° |
| 2026-04-24 21:32 | -13.47413 | 16.18723 | 34529 ft | 480 kts | 140° |
| 2026-04-24 21:32 | -13.49119 | 16.20245 | 34648 ft | 480 kts | 140° |
| 2026-04-24 21:32 | -13.51639 | 16.22493 | 34795 ft | 480 kts | 140° |
| 2026-04-24 21:33 | -13.54162 | 16.24746 | 34974 ft | 480 kts | 140° |
| 2026-04-24 21:33 | -13.56678 | 16.26993 | 35138 ft | 480 kts | 140° |
| 2026-04-24 21:33 | -13.59201 | 16.29248 | 35210 ft | 481 kts | 140° |
| 2026-04-24 21:34 | -13.64263 | 16.33772 | 35211 ft | 481 kts | 140° |
| 2026-04-24 21:34 | -13.69308 | 16.38282 | 35220 ft | 481 kts | 140° |
| 2026-04-24 21:35 | -13.74355 | 16.42799 | 35220 ft | 481 kts | 140° |
| 2026-04-24 21:35 | -13.79386 | 16.47327 | 35220 ft | 481 kts | 140° |
| 2026-04-24 21:36 | -13.84382 | 16.51896 | 35220 ft | 481 kts | 140° |
| 2026-04-24 21:36 | -13.89372 | 16.56473 | 35220 ft | 481 kts | 140° |
| 2026-04-24 21:37 | -13.94335 | 16.61014 | 35220 ft | 480 kts | 140° |
| 2026-04-24 21:37 | -13.99329 | 16.65580 | 35218 ft | 480 kts | 140° |
| 2026-04-24 21:38 | -14.04325 | 16.70148 | 35193 ft | 481 kts | 140° |
| 2026-04-24 21:38 | -14.09336 | 16.74731 | 35194 ft | 482 kts | 140° |
| 2026-04-24 21:39 | -14.14349 | 16.79321 | 35193 ft | 482 kts | 140° |
| 2026-04-24 21:39 | -14.19367 | 16.83917 | 35192 ft | 482 kts | 141° |
| 2026-04-24 21:40 | -14.24386 | 16.88516 | 35194 ft | 483 kts | 141° |
| 2026-04-24 21:40 | -14.29400 | 16.93117 | 35192 ft | 483 kts | 141° |
| 2026-04-24 21:41 | -14.34414 | 16.97720 | 35191 ft | 483 kts | 141° |
| 2026-04-24 21:41 | -14.39430 | 17.02327 | 35184 ft | 483 kts | 141° |
| 2026-04-24 21:42 | -14.44448 | 17.06938 | 35184 ft | 483 kts | 141° |
| 2026-04-24 21:42 | -14.49467 | 17.11554 | 35183 ft | 483 kts | 141° |
| 2026-04-24 21:43 | -14.54482 | 17.16170 | 35184 ft | 483 kts | 141° |
| 2026-04-24 21:43 | -14.59497 | 17.20791 | 35184 ft | 483 kts | 141° |
| 2026-04-24 21:44 | -14.64513 | 17.25411 | 35183 ft | 483 kts | 141° |
| 2026-04-24 21:44 | -14.69529 | 17.30035 | 35184 ft | 484 kts | 141° |
| 2026-04-24 21:45 | -14.74552 | 17.34668 | 35183 ft | 484 kts | 141° |
| 2026-04-24 21:45 | -14.79544 | 17.39273 | 35184 ft | 485 kts | 141° |
| 2026-04-24 21:46 | -14.84569 | 17.43914 | 35177 ft | 485 kts | 141° |
| 2026-04-24 21:46 | -14.89595 | 17.48559 | 35175 ft | 485 kts | 141° |
| 2026-04-24 21:47 | -14.94654 | 17.53240 | 35174 ft | 485 kts | 141° |
| 2026-04-24 21:47 | -14.99685 | 17.57899 | 35173 ft | 486 kts | 141° |
| 2026-04-24 21:48 | -15.04719 | 17.62562 | 35175 ft | 486 kts | 141° |
| 2026-04-24 21:48 | -15.09727 | 17.67201 | 35182 ft | 486 kts | 141° |
| 2026-04-24 21:49 | -15.14768 | 17.71879 | 35183 ft | 487 kts | 141° |
| 2026-04-24 21:49 | -15.19814 | 17.76563 | 35175 ft | 487 kts | 141° |
| 2026-04-24 21:50 | -15.24862 | 17.81249 | 35175 ft | 488 kts | 142° |
| 2026-04-24 21:50 | -15.29920 | 17.85946 | 35174 ft | 488 kts | 141° |
| 2026-04-24 21:51 | -15.34982 | 17.90650 | 35176 ft | 489 kts | 142° |
| 2026-04-24 21:51 | -15.40045 | 17.95364 | 35174 ft | 490 kts | 142° |
| 2026-04-24 21:52 | -15.45113 | 18.00086 | 35182 ft | 490 kts | 142° |
| 2026-04-24 21:52 | -15.50189 | 18.04815 | 35183 ft | 491 kts | 142° |
| 2026-04-24 21:53 | -15.55268 | 18.09550 | 35183 ft | 491 kts | 142° |
| 2026-04-24 21:53 | -15.60352 | 18.14293 | 35184 ft | 492 kts | 142° |
| 2026-04-24 21:54 | -15.65435 | 18.19039 | 35183 ft | 492 kts | 142° |
| 2026-04-24 21:54 | -15.70516 | 18.23787 | 35182 ft | 492 kts | 142° |
| 2026-04-24 21:55 | -15.75600 | 18.28542 | 35183 ft | 492 kts | 142° |
| 2026-04-24 21:55 | -15.80687 | 18.33302 | 35184 ft | 492 kts | 142° |
| 2026-04-24 21:56 | -15.85766 | 18.38060 | 35183 ft | 492 kts | 142° |
| 2026-04-24 21:56 | -15.90848 | 18.42820 | 35183 ft | 492 kts | 142° |
| 2026-04-24 21:57 | -15.95925 | 18.47580 | 35184 ft | 492 kts | 142° |
| 2026-04-24 21:57 | -16.01000 | 18.52339 | 35185 ft | 492 kts | 142° |
| 2026-04-24 21:58 | -16.06081 | 18.57110 | 35183 ft | 493 kts | 142° |
| 2026-04-24 21:58 | -16.11137 | 18.61863 | 35184 ft | 493 kts | 142° |
| 2026-04-24 21:59 | -16.16229 | 18.66651 | 35193 ft | 494 kts | 142° |
| 2026-04-24 21:59 | -16.21316 | 18.71442 | 35193 ft | 493 kts | 142° |
| 2026-04-24 22:00 | -16.26406 | 18.76238 | 35195 ft | 493 kts | 142° |
| 2026-04-24 22:00 | -16.31490 | 18.81025 | 35191 ft | 493 kts | 142° |
| 2026-04-24 22:01 | -16.36578 | 18.85819 | 35193 ft | 494 kts | 142° |
| 2026-04-24 22:01 | -16.41664 | 18.90622 | 35193 ft | 494 kts | 142° |
| 2026-04-24 22:02 | -16.46754 | 18.95429 | 35211 ft | 494 kts | 142° |
| 2026-04-24 22:02 | -16.51832 | 19.00229 | 35210 ft | 493 kts | 142° |
| 2026-04-24 22:03 | -16.56912 | 19.05037 | 35211 ft | 493 kts | 142° |
| 2026-04-24 22:03 | -16.61993 | 19.09846 | 35211 ft | 493 kts | 142° |
| 2026-04-24 22:04 | -16.67074 | 19.14658 | 35211 ft | 493 kts | 142° |
| 2026-04-24 22:04 | -16.72151 | 19.19471 | 35211 ft | 493 kts | 142° |
| 2026-04-24 22:05 | -16.77227 | 19.24288 | 35211 ft | 493 kts | 142° |
| 2026-04-24 22:05 | -16.82307 | 19.29111 | 35211 ft | 494 kts | 142° |
| 2026-04-24 22:06 | -16.87350 | 19.33901 | 35210 ft | 493 kts | 142° |
| 2026-04-24 22:06 | -16.92427 | 19.38728 | 35211 ft | 493 kts | 142° |
| 2026-04-24 22:07 | -16.97502 | 19.43557 | 35211 ft | 494 kts | 143° |
| 2026-04-24 22:07 | -17.02579 | 19.48394 | 35211 ft | 494 kts | 143° |
| 2026-04-24 22:08 | -17.07654 | 19.53233 | 35211 ft | 494 kts | 143° |
| 2026-04-24 22:08 | -17.12725 | 19.58070 | 35211 ft | 493 kts | 143° |
| 2026-04-24 22:09 | -17.17794 | 19.62908 | 35211 ft | 493 kts | 143° |
| 2026-04-24 22:09 | -17.22864 | 19.67752 | 35208 ft | 494 kts | 143° |
| 2026-04-24 22:10 | -17.27977 | 19.72636 | 35212 ft | 501 kts | 143° |
| 2026-04-24 22:10 | -17.33125 | 19.77560 | 35211 ft | 502 kts | 143° |
| 2026-04-24 22:11 | -17.38275 | 19.82494 | 35211 ft | 502 kts | 143° |
| 2026-04-24 22:11 | -17.43430 | 19.87436 | 35211 ft | 503 kts | 143° |
| 2026-04-24 22:12 | -17.48586 | 19.92383 | 35212 ft | 503 kts | 143° |
| 2026-04-24 22:12 | -17.53739 | 19.97330 | 35211 ft | 503 kts | 143° |
| 2026-04-24 22:13 | -17.58900 | 20.02288 | 35211 ft | 503 kts | 143° |
| 2026-04-24 22:13 | -17.64061 | 20.07248 | 35211 ft | 504 kts | 143° |
| 2026-04-24 22:14 | -17.69234 | 20.12224 | 35211 ft | 504 kts | 143° |
| 2026-04-24 22:14 | -17.74404 | 20.17202 | 35211 ft | 505 kts | 143° |
| 2026-04-24 22:15 | -17.79573 | 20.22187 | 35211 ft | 505 kts | 143° |
| 2026-04-24 22:15 | -17.84707 | 20.27138 | 35211 ft | 505 kts | 143° |
| 2026-04-24 22:16 | -17.89895 | 20.32092 | 35428 ft | 502 kts | 146° |
| 2026-04-24 22:16 | -17.92590 | 20.34406 | 35616 ft | 499 kts | 148° |
| 2026-04-24 22:16 | -17.95329 | 20.36634 | 35798 ft | 498 kts | 149° |
| 2026-04-24 22:16 | -17.98082 | 20.38840 | 35965 ft | 497 kts | 149° |
| 2026-04-24 22:17 | -18.00823 | 20.41045 | 36106 ft | 497 kts | 148° |
| 2026-04-24 22:17 | -18.03560 | 20.43273 | 36233 ft | 497 kts | 148° |
| 2026-04-24 22:17 | -18.06282 | 20.45513 | 36363 ft | 498 kts | 148° |
| 2026-04-24 22:17 | -18.09003 | 20.47767 | 36489 ft | 498 kts | 148° |
| 2026-04-24 22:18 | -18.11719 | 20.50028 | 36598 ft | 498 kts | 148° |
| 2026-04-24 22:18 | -18.14431 | 20.52292 | 36737 ft | 498 kts | 148° |
| 2026-04-24 22:18 | -18.17137 | 20.54556 | 36906 ft | 496 kts | 148° |
| 2026-04-24 22:18 | -18.19829 | 20.56810 | 37132 ft | 494 kts | 148° |
| 2026-04-24 22:19 | -18.21609 | 20.58299 | 37194 ft | 494 kts | 148° |
| 2026-04-24 22:19 | -18.26958 | 20.62774 | 37202 ft | 489 kts | 148° |
| 2026-04-24 22:20 | -18.32271 | 20.67216 | 37200 ft | 487 kts | 148° |
| 2026-04-24 22:20 | -18.37584 | 20.71660 | 37203 ft | 488 kts | 148° |
| 2026-04-24 22:21 | -18.42903 | 20.76114 | 37204 ft | 489 kts | 148° |
| 2026-04-24 22:21 | -18.48225 | 20.80575 | 37201 ft | 489 kts | 148° |
| 2026-04-24 22:22 | -18.53551 | 20.85044 | 37203 ft | 489 kts | 148° |
| 2026-04-24 22:22 | -18.58875 | 20.89514 | 37200 ft | 490 kts | 148° |
| 2026-04-24 22:23 | -18.64198 | 20.93988 | 37194 ft | 490 kts | 148° |
| 2026-04-24 22:23 | -18.69521 | 20.98465 | 37193 ft | 490 kts | 148° |
| 2026-04-24 22:24 | -18.74861 | 21.02966 | 37196 ft | 491 kts | 148° |
| 2026-04-24 22:24 | -18.80199 | 21.07466 | 37195 ft | 491 kts | 148° |
| 2026-04-24 22:25 | -18.85537 | 21.11970 | 37205 ft | 491 kts | 148° |
| 2026-04-24 22:25 | -18.90875 | 21.16475 | 37201 ft | 492 kts | 148° |
| 2026-04-24 22:26 | -18.96180 | 21.20958 | 37202 ft | 492 kts | 148° |
| 2026-04-24 22:26 | -19.01513 | 21.25469 | 37201 ft | 491 kts | 148° |
| 2026-04-24 22:27 | -19.06856 | 21.29991 | 37203 ft | 492 kts | 148° |
| 2026-04-24 22:27 | -19.12191 | 21.34513 | 37203 ft | 492 kts | 148° |
| 2026-04-24 22:28 | -19.17531 | 21.39042 | 37192 ft | 493 kts | 148° |
| 2026-04-24 22:28 | -19.22883 | 21.43583 | 37193 ft | 493 kts | 148° |
| 2026-04-24 22:29 | -19.30920 | 21.50408 | 37196 ft | 494 kts | 148° |
| 2026-04-24 22:29 | -19.36277 | 21.54965 | 37196 ft | 494 kts | 148° |
| 2026-04-24 22:30 | -19.41646 | 21.59535 | 37195 ft | 495 kts | 148° |
| 2026-04-24 22:30 | -19.47018 | 21.64113 | 37197 ft | 496 kts | 149° |
| 2026-04-24 22:31 | -19.52389 | 21.68700 | 37196 ft | 497 kts | 148° |
| 2026-04-24 22:31 | -19.57761 | 21.73319 | 37175 ft | 497 kts | 148° |
| 2026-04-24 22:32 | -19.63132 | 21.77948 | 37182 ft | 498 kts | 148° |
| 2026-04-24 22:32 | -19.68512 | 21.82584 | 37184 ft | 498 kts | 148° |
| 2026-04-24 22:33 | -19.73893 | 21.87222 | 37182 ft | 499 kts | 148° |
| 2026-04-24 22:33 | -19.79295 | 21.91843 | 37185 ft | 499 kts | 149° |
| 2026-04-24 22:34 | -19.84723 | 21.96435 | 37182 ft | 499 kts | 149° |
| 2026-04-24 22:34 | -19.90116 | 22.01004 | 37191 ft | 499 kts | 149° |
| 2026-04-24 22:35 | -19.95537 | 22.05613 | 37187 ft | 499 kts | 149° |
| 2026-04-24 22:35 | -20.00964 | 22.10232 | 37196 ft | 499 kts | 149° |
| 2026-04-24 22:36 | -20.06386 | 22.14853 | 37196 ft | 499 kts | 149° |
| 2026-04-24 22:36 | -20.11802 | 22.19471 | 37197 ft | 499 kts | 149° |
| 2026-04-24 22:37 | -20.17223 | 22.24099 | 37197 ft | 499 kts | 149° |
| 2026-04-24 22:37 | -20.22642 | 22.28728 | 37196 ft | 499 kts | 149° |
| 2026-04-24 22:38 | -20.28055 | 22.33355 | 37195 ft | 499 kts | 149° |
| 2026-04-24 22:38 | -20.33469 | 22.37988 | 37195 ft | 499 kts | 149° |
| 2026-04-24 22:39 | -20.38881 | 22.42624 | 37192 ft | 499 kts | 149° |
| 2026-04-24 22:39 | -20.44291 | 22.47260 | 37192 ft | 497 kts | 148° |
| 2026-04-24 22:40 | -20.49648 | 22.51850 | 37191 ft | 492 kts | 148° |
| 2026-04-24 22:40 | -20.54977 | 22.56416 | 37194 ft | 492 kts | 148° |
| 2026-04-24 22:41 | -20.60312 | 22.60991 | 37194 ft | 492 kts | 148° |
| 2026-04-24 22:41 | -20.65616 | 22.65545 | 37192 ft | 492 kts | 148° |
| 2026-04-24 22:42 | -20.70952 | 22.70129 | 37194 ft | 492 kts | 148° |
| 2026-04-24 22:42 | -20.76289 | 22.74720 | 37186 ft | 493 kts | 148° |
| 2026-04-24 22:43 | -20.81631 | 22.79321 | 37194 ft | 493 kts | 148° |
| 2026-04-24 22:43 | -20.86967 | 22.83934 | 37196 ft | 493 kts | 148° |
| 2026-04-24 22:44 | -20.92288 | 22.88578 | 37192 ft | 494 kts | 148° |
| 2026-04-24 22:44 | -20.97603 | 22.93226 | 37191 ft | 494 kts | 148° |
| 2026-04-24 22:45 | -21.02927 | 22.97880 | 37196 ft | 494 kts | 147° |
| 2026-04-24 22:45 | -21.08250 | 23.02535 | 37195 ft | 494 kts | 147° |
| 2026-04-24 22:46 | -21.13572 | 23.07191 | 37196 ft | 494 kts | 147° |
| 2026-04-24 22:46 | -21.18903 | 23.11858 | 37191 ft | 495 kts | 147° |
| 2026-04-24 22:47 | -21.24239 | 23.16536 | 37193 ft | 495 kts | 147° |
| 2026-04-24 22:47 | -21.29570 | 23.21215 | 37201 ft | 495 kts | 147° |
| 2026-04-24 22:48 | -21.34899 | 23.25895 | 37202 ft | 495 kts | 147° |
| 2026-04-24 22:48 | -21.40226 | 23.30576 | 37200 ft | 495 kts | 147° |
| 2026-04-24 22:49 | -21.45524 | 23.35236 | 37203 ft | 496 kts | 147° |
| 2026-04-24 22:49 | -21.50856 | 23.39929 | 37202 ft | 496 kts | 147° |
| 2026-04-24 22:50 | -21.56186 | 23.44628 | 37196 ft | 496 kts | 147° |
| 2026-04-24 22:50 | -21.61523 | 23.49337 | 37196 ft | 496 kts | 147° |
| 2026-04-24 22:51 | -21.66856 | 23.54045 | 37209 ft | 496 kts | 147° |
| 2026-04-24 22:51 | -21.72193 | 23.58762 | 37211 ft | 497 kts | 147° |
| 2026-04-24 22:52 | -21.77532 | 23.63484 | 37211 ft | 497 kts | 147° |
| 2026-04-24 22:52 | -21.82871 | 23.68213 | 37211 ft | 497 kts | 147° |
| 2026-04-24 22:53 | -21.88206 | 23.72945 | 37209 ft | 497 kts | 147° |
| 2026-04-24 22:53 | -21.93542 | 23.77681 | 37211 ft | 497 kts | 147° |
| 2026-04-24 22:54 | -21.98880 | 23.82422 | 37218 ft | 498 kts | 147° |
| 2026-04-24 22:54 | -22.04220 | 23.87168 | 37219 ft | 497 kts | 147° |
| 2026-04-24 22:55 | -22.09556 | 23.91919 | 37218 ft | 498 kts | 146° |
| 2026-04-24 22:55 | -22.14891 | 23.96678 | 37217 ft | 498 kts | 147° |
| 2026-04-24 22:56 | -22.20229 | 24.01437 | 37217 ft | 498 kts | 146° |
| 2026-04-24 22:56 | -22.25559 | 24.06196 | 37220 ft | 497 kts | 146° |
| 2026-04-24 22:57 | -22.30896 | 24.10964 | 37232 ft | 498 kts | 146° |
| 2026-04-24 22:57 | -22.36233 | 24.15739 | 37227 ft | 498 kts | 146° |
| 2026-04-24 22:58 | -22.41534 | 24.20487 | 37218 ft | 498 kts | 146° |
| 2026-04-24 22:58 | -22.46908 | 24.25299 | 37219 ft | 499 kts | 146° |
| 2026-04-24 22:59 | -22.52211 | 24.30065 | 37225 ft | 499 kts | 146° |
| 2026-04-24 23:00 | -22.60217 | 24.37259 | 37227 ft | 498 kts | 146° |
| 2026-04-24 23:00 | -22.65549 | 24.42049 | 37233 ft | 499 kts | 146° |
| 2026-04-24 23:01 | -22.70884 | 24.46857 | 37227 ft | 499 kts | 146° |
| 2026-04-24 23:01 | -22.76220 | 24.51674 | 37227 ft | 499 kts | 146° |
| 2026-04-24 23:02 | -22.81542 | 24.56499 | 37234 ft | 499 kts | 146° |
| 2026-04-24 23:02 | -22.86867 | 24.61333 | 37237 ft | 499 kts | 145° |
| 2026-04-24 23:03 | -22.92191 | 24.66169 | 37235 ft | 499 kts | 145° |
| 2026-04-24 23:03 | -22.97516 | 24.71010 | 37238 ft | 500 kts | 145° |
| 2026-04-24 23:04 | -23.02845 | 24.75861 | 37235 ft | 500 kts | 145° |
| 2026-04-24 23:04 | -23.08172 | 24.80715 | 37248 ft | 500 kts | 145° |
| 2026-04-24 23:05 | -23.13496 | 24.85570 | 37248 ft | 500 kts | 145° |
| 2026-04-24 23:05 | -23.18818 | 24.90428 | 37248 ft | 500 kts | 145° |
| 2026-04-24 23:06 | -23.24137 | 24.95288 | 37257 ft | 500 kts | 145° |
| 2026-04-24 23:06 | -23.29464 | 25.00160 | 37256 ft | 500 kts | 145° |
| 2026-04-24 23:07 | -23.34794 | 25.05044 | 37257 ft | 501 kts | 145° |
| 2026-04-24 23:07 | -23.39223 | 25.09106 | 37257 ft | 501 kts | 145° |
| 2026-04-24 23:08 | -23.44548 | 25.13993 | 37257 ft | 501 kts | 145° |
| 2026-04-24 23:08 | -23.50745 | 25.19687 | 37257 ft | 501 kts | 144° |
| 2026-04-24 23:09 | -23.55208 | 25.23793 | 37257 ft | 502 kts | 144° |
| 2026-04-24 23:09 | -23.60572 | 25.28657 | 37233 ft | 499 kts | 149° |
| 2026-04-24 23:10 | -23.66484 | 25.32449 | 37240 ft | 491 kts | 158° |
| 2026-04-24 23:10 | -23.72583 | 25.35803 | 37236 ft | 491 kts | 159° |
| 2026-04-24 23:11 | -23.78715 | 25.39082 | 37238 ft | 491 kts | 160° |
| 2026-04-24 23:11 | -23.84848 | 25.42376 | 37238 ft | 492 kts | 159° |
| 2026-04-24 23:12 | -23.90980 | 25.45693 | 37242 ft | 492 kts | 159° |
| 2026-04-24 23:12 | -23.97109 | 25.49023 | 37240 ft | 492 kts | 159° |
| 2026-04-24 23:13 | -24.03242 | 25.52355 | 37237 ft | 492 kts | 159° |
| 2026-04-24 23:13 | -24.09381 | 25.55692 | 37240 ft | 492 kts | 159° |
| 2026-04-24 23:14 | -24.15519 | 25.59034 | 37240 ft | 492 kts | 159° |
| 2026-04-24 23:14 | -24.21654 | 25.62378 | 37237 ft | 493 kts | 159° |
| 2026-04-24 23:15 | -24.27784 | 25.65725 | 37239 ft | 492 kts | 159° |
| 2026-04-24 23:15 | -24.33873 | 25.69051 | 37237 ft | 492 kts | 159° |
| 2026-04-24 23:16 | -24.39999 | 25.72400 | 37239 ft | 492 kts | 159° |
| 2026-04-24 23:16 | -24.46133 | 25.75757 | 37236 ft | 492 kts | 159° |
| 2026-04-24 23:17 | -24.52262 | 25.79117 | 37236 ft | 492 kts | 159° |
| 2026-04-24 23:17 | -24.58154 | 25.83023 | 37235 ft | 502 kts | 144° |
| 2026-04-24 23:17 | -24.60665 | 25.85708 | 37235 ft | 508 kts | 133° |
| 2026-04-24 23:18 | -24.62744 | 25.88868 | 37251 ft | 511 kts | 126° |
| 2026-04-24 23:18 | -24.66419 | 25.95589 | 37248 ft | 515 kts | 122° |
| 2026-04-24 23:19 | -24.69946 | 26.02441 | 37247 ft | 515 kts | 122° |
| 2026-04-24 23:19 | -24.73527 | 26.09273 | 37248 ft | 516 kts | 124° |
| 2026-04-24 23:20 | -24.77329 | 26.15967 | 37252 ft | 515 kts | 125° |
| 2026-04-24 23:20 | -24.81160 | 26.22626 | 37257 ft | 515 kts | 125° |
| 2026-04-24 23:21 | -24.84970 | 26.29318 | 37258 ft | 516 kts | 124° |
| 2026-04-24 23:21 | -24.88763 | 26.36031 | 37257 ft | 516 kts | 124° |
| 2026-04-24 23:22 | -24.92546 | 26.42746 | 37266 ft | 516 kts | 124° |
| 2026-04-24 23:22 | -24.96330 | 26.49466 | 37265 ft | 516 kts | 124° |
| 2026-04-24 23:23 | -25.00112 | 26.56193 | 37272 ft | 516 kts | 124° |
| 2026-04-24 23:23 | -25.03886 | 26.62927 | 37275 ft | 516 kts | 124° |
| 2026-04-24 23:24 | -25.07566 | 26.69729 | 37275 ft | 517 kts | 123° |
| 2026-04-24 23:24 | -25.11190 | 26.76572 | 37284 ft | 516 kts | 123° |
| 2026-04-24 23:25 | -25.14800 | 26.83370 | 37284 ft | 517 kts | 123° |
| 2026-04-24 23:25 | -25.18450 | 26.90214 | 37290 ft | 518 kts | 123° |
| 2026-04-24 23:26 | -25.22104 | 26.97065 | 37293 ft | 518 kts | 123° |
| 2026-04-24 23:26 | -25.25757 | 27.03926 | 37304 ft | 518 kts | 123° |
| 2026-04-24 23:27 | -25.29404 | 27.10790 | 37303 ft | 518 kts | 122° |
| 2026-04-24 23:27 | -25.33049 | 27.17662 | 37312 ft | 518 kts | 122° |
| 2026-04-24 23:28 | -25.36693 | 27.24537 | 37312 ft | 518 kts | 122° |
| 2026-04-24 23:28 | -25.40334 | 27.31416 | 37320 ft | 519 kts | 122° |
| 2026-04-24 23:29 | -25.43980 | 27.38314 | 37321 ft | 519 kts | 122° |
| 2026-04-24 23:29 | -25.47622 | 27.45216 | 37331 ft | 520 kts | 122° |
| 2026-04-24 23:30 | -25.51264 | 27.52129 | 37330 ft | 520 kts | 122° |
| 2026-04-24 23:30 | -25.54901 | 27.59044 | 37337 ft | 520 kts | 122° |
| 2026-04-24 23:31 | -25.58538 | 27.65971 | 37339 ft | 520 kts | 122° |
| 2026-04-24 23:31 | -25.62174 | 27.72903 | 37339 ft | 521 kts | 122° |
| 2026-04-24 23:32 | -25.65818 | 27.79773 | 37320 ft | 520 kts | 126° |
| 2026-04-24 23:32 | -25.70613 | 27.85638 | 37334 ft | 510 kts | 144° |
| 2026-04-24 23:33 | -25.76196 | 27.90470 | 37331 ft | 509 kts | 148° |
| 2026-04-24 23:33 | -25.81907 | 27.95134 | 37342 ft | 510 kts | 148° |
| 2026-04-24 23:34 | -25.87621 | 27.99801 | 37349 ft | 510 kts | 148° |
| 2026-04-24 23:34 | -25.93317 | 28.04494 | 37347 ft | 510 kts | 148° |
| 2026-04-24 23:35 | -25.99004 | 28.09204 | 37348 ft | 510 kts | 147° |
| 2026-04-24 23:35 | -26.04686 | 28.13922 | 37349 ft | 510 kts | 147° |
| 2026-04-24 23:36 | -26.10369 | 28.18646 | 37347 ft | 510 kts | 147° |
| 2026-04-24 23:36 | -26.15651 | 28.23961 | 37350 ft | 517 kts | 131° |
| 2026-04-24 23:37 | -26.19520 | 28.30736 | 37350 ft | 521 kts | 121° |
| 2026-04-24 23:37 | -26.24677 | 28.41410 | 37349 ft | 522 kts | 119° |
| 2026-04-24 23:38 | -26.28081 | 28.48549 | 37350 ft | 521 kts | 120° |
| 2026-04-24 23:38 | -26.31508 | 28.55673 | 37349 ft | 521 kts | 120° |
| 2026-04-24 23:39 | -26.34942 | 28.62786 | 37349 ft | 521 kts | 120° |
| 2026-04-24 23:39 | -26.38373 | 28.69903 | 37347 ft | 521 kts | 120° |
| 2026-04-24 23:40 | -26.41800 | 28.77023 | 37347 ft | 521 kts | 120° |
| 2026-04-24 23:40 | -26.45222 | 28.84143 | 37338 ft | 521 kts | 120° |
| 2026-04-24 23:41 | -26.48641 | 28.91276 | 37340 ft | 521 kts | 120° |
| 2026-04-24 23:41 | -26.52033 | 28.98356 | 37339 ft | 521 kts | 120° |
| 2026-04-24 23:42 | -26.55809 | 29.05215 | 37340 ft | 516 kts | 133° |
| 2026-04-24 23:42 | -26.60688 | 29.11053 | 37332 ft | 514 kts | 138° |
| 2026-04-24 23:43 | -26.65765 | 29.16675 | 37329 ft | 514 kts | 139° |
| 2026-04-24 23:43 | -26.70868 | 29.22271 | 37329 ft | 514 kts | 139° |
| 2026-04-24 23:44 | -26.75947 | 29.27882 | 37321 ft | 513 kts | 139° |
| 2026-04-24 23:44 | -26.81013 | 29.33509 | 37321 ft | 513 kts | 138° |
| 2026-04-24 23:45 | -26.86075 | 29.39145 | 37315 ft | 513 kts | 138° |
| 2026-04-24 23:45 | -26.91199 | 29.44710 | 37310 ft | 511 kts | 144° |
| 2026-04-24 23:46 | -26.96866 | 29.49443 | 37311 ft | 507 kts | 149° |
| 2026-04-24 23:46 | -27.02644 | 29.53975 | 37301 ft | 507 kts | 149° |
| 2026-04-24 23:47 | -27.08402 | 29.58447 | 37296 ft | 506 kts | 149° |
| 2026-04-24 23:47 | -27.14189 | 29.62961 | 37275 ft | 507 kts | 149° |
| 2026-04-24 23:48 | -27.19975 | 29.67493 | 37275 ft | 507 kts | 149° |
| 2026-04-24 23:48 | -27.25758 | 29.72034 | 37268 ft | 507 kts | 149° |
| 2026-04-24 23:49 | -27.31531 | 29.76575 | 37266 ft | 506 kts | 149° |
| 2026-04-24 23:49 | -27.37299 | 29.81118 | 37257 ft | 506 kts | 149° |
| 2026-04-24 23:50 | -27.43069 | 29.85664 | 37256 ft | 507 kts | 149° |
| 2026-04-24 23:50 | -27.48840 | 29.90219 | 37248 ft | 506 kts | 149° |
| 2026-04-24 23:51 | -27.54601 | 29.94774 | 37248 ft | 506 kts | 149° |
| 2026-04-24 23:51 | -27.60364 | 29.99336 | 37241 ft | 506 kts | 149° |
| 2026-04-24 23:52 | -27.66122 | 30.03900 | 37239 ft | 506 kts | 149° |
| 2026-04-24 23:52 | -27.70895 | 30.07689 | 37240 ft | 507 kts | 148° |
| 2026-04-24 23:53 | -27.76642 | 30.12273 | 37226 ft | 507 kts | 148° |
| 2026-04-24 23:53 | -27.82359 | 30.16845 | 37209 ft | 506 kts | 148° |
| 2026-04-24 23:54 | -27.88061 | 30.21410 | 36839 ft | 498 kts | 148° |
| 2026-04-24 23:54 | -27.90902 | 30.23682 | 36122 ft | 503 kts | 148° |
| 2026-04-24 23:54 | -27.93769 | 30.25973 | 35441 ft | 507 kts | 148° |
| 2026-04-24 23:55 | -27.96659 | 30.28284 | 34766 ft | 511 kts | 148° |
| 2026-04-24 23:55 | -27.99578 | 30.30621 | 34075 ft | 515 kts | 148° |
| 2026-04-24 23:55 | -28.02510 | 30.32972 | 33363 ft | 519 kts | 148° |
| 2026-04-24 23:55 | -28.05471 | 30.35349 | 32643 ft | 523 kts | 147° |
| 2026-04-24 23:56 | -28.08445 | 30.37740 | 31910 ft | 526 kts | 147° |
| 2026-04-24 23:56 | -28.11428 | 30.40139 | 31195 ft | 527 kts | 146° |
| 2026-04-24 23:56 | -28.14425 | 30.42552 | 30459 ft | 529 kts | 146° |
| 2026-04-24 23:56 | -28.17427 | 30.44970 | 29732 ft | 530 kts | 146° |
| 2026-04-24 23:57 | -28.19411 | 30.46570 | 29342 ft | 528 kts | 146° |
| 2026-04-24 23:57 | -28.22399 | 30.48979 | 28768 ft | 526 kts | 146° |
| 2026-04-24 23:57 | -28.26366 | 30.52177 | 28039 ft | 521 kts | 146° |
| 2026-04-24 23:57 | -28.28317 | 30.53752 | 27677 ft | 518 kts | 146° |
| 2026-04-24 23:58 | -28.31241 | 30.56116 | 27139 ft | 515 kts | 146° |
| 2026-04-24 23:58 | -28.34145 | 30.58466 | 26620 ft | 510 kts | 146° |
| 2026-04-24 23:58 | -28.37018 | 30.60795 | 26139 ft | 505 kts | 146° |
| 2026-04-24 23:58 | -28.39863 | 30.63102 | 25607 ft | 501 kts | 146° |
| 2026-04-24 23:59 | -28.42681 | 30.65389 | 25112 ft | 496 kts | 146° |
| 2026-04-24 23:59 | -28.45475 | 30.67657 | 24580 ft | 492 kts | 146° |
| 2026-04-24 23:59 | -28.48248 | 30.69910 | 24099 ft | 487 kts | 146° |
| 2026-04-24 23:59 | -28.50956 | 30.72112 | 23551 ft | 483 kts | 146° |
| 2026-04-25 00:00 | -28.53682 | 30.74328 | 22897 ft | 482 kts | 146° |
| 2026-04-25 00:00 | -28.56443 | 30.76574 | 22373 ft | 479 kts | 146° |
| 2026-04-25 00:00 | -28.59104 | 30.78741 | 21859 ft | 475 kts | 146° |
| 2026-04-25 00:00 | -28.61655 | 30.80820 | 21691 ft | 467 kts | 146° |
| 2026-04-25 00:01 | -28.64310 | 30.82985 | 21615 ft | 472 kts | 146° |
| 2026-04-25 00:01 | -28.66979 | 30.85161 | 21590 ft | 472 kts | 146° |
| 2026-04-25 00:01 | -28.69628 | 30.87324 | 21239 ft | 466 kts | 146° |
| 2026-04-25 00:01 | -28.72262 | 30.89475 | 21005 ft | 467 kts | 146° |
| 2026-04-25 00:02 | -28.74906 | 30.91635 | 20935 ft | 465 kts | 146° |
| 2026-04-25 00:02 | -28.77514 | 30.93761 | 20667 ft | 459 kts | 147° |
| 2026-04-25 00:02 | -28.80332 | 30.95452 | 20319 ft | 455 kts | 162° |
| 2026-04-25 00:02 | -28.83368 | 30.96366 | 19721 ft | 451 kts | 171° |
| 2026-04-25 00:03 | -28.86435 | 30.97087 | 19211 ft | 449 kts | 171° |
| 2026-04-25 00:03 | -28.89475 | 30.97816 | 18781 ft | 445 kts | 170° |
| 2026-04-25 00:03 | -28.92494 | 30.98566 | 18369 ft | 442 kts | 170° |
| 2026-04-25 00:03 | -28.95482 | 30.99326 | 17954 ft | 438 kts | 169° |
| 2026-04-25 00:04 | -28.98455 | 31.00092 | 17552 ft | 438 kts | 169° |
| 2026-04-25 00:04 | -29.01403 | 31.00857 | 17315 ft | 431 kts | 169° |
| 2026-04-25 00:04 | -29.04343 | 31.01630 | 17208 ft | 435 kts | 169° |
| 2026-04-25 00:04 | -29.07286 | 31.02396 | 17167 ft | 434 kts | 169° |
| 2026-04-25 00:05 | -29.10209 | 31.03156 | 16937 ft | 427 kts | 169° |
| 2026-04-25 00:05 | -29.13112 | 31.03915 | 16587 ft | 430 kts | 169° |
| 2026-04-25 00:05 | -29.15998 | 31.04685 | 16105 ft | 423 kts | 169° |
| 2026-04-25 00:05 | -29.18867 | 31.05442 | 15514 ft | 424 kts | 169° |
| 2026-04-25 00:06 | -29.21723 | 31.06195 | 15060 ft | 417 kts | 169° |
| 2026-04-25 00:06 | -29.24540 | 31.06934 | 14645 ft | 418 kts | 169° |
| 2026-04-25 00:06 | -29.27349 | 31.07670 | 14234 ft | 409 kts | 169° |
| 2026-04-25 00:06 | -29.30115 | 31.08388 | 13801 ft | 409 kts | 168° |
| 2026-04-25 00:07 | -29.32879 | 31.09126 | 13412 ft | 405 kts | 169° |
| 2026-04-25 00:07 | -29.35618 | 31.09850 | 12983 ft | 403 kts | 168° |
| 2026-04-25 00:07 | -29.38344 | 31.10563 | 12570 ft | 400 kts | 169° |
| 2026-04-25 00:07 | -29.41045 | 31.11278 | 12143 ft | 398 kts | 168° |
| 2026-04-25 00:08 | -29.43766 | 31.11542 | 11732 ft | 390 kts | 188° |
| 2026-04-25 00:08 | -29.46330 | 31.10698 | 11357 ft | 383 kts | 209° |
| 2026-04-25 00:08 | -29.48448 | 31.08876 | 10987 ft | 380 kts | 227° |
| 2026-04-25 00:08 | -29.50302 | 31.06718 | 10641 ft | 379 kts | 226° |
| 2026-04-25 00:09 | -29.52215 | 31.04650 | 10213 ft | 377 kts | 223° |
| 2026-04-25 00:09 | -29.54199 | 31.02687 | 9821 ft | 378 kts | 221° |
| 2026-04-25 00:09 | -29.56237 | 31.00779 | 9408 ft | 377 kts | 220° |
| 2026-04-25 00:09 | -29.58262 | 30.98940 | 9002 ft | 374 kts | 219° |
| 2026-04-25 00:10 | -29.60321 | 30.97102 | 8607 ft | 376 kts | 219° |
| 2026-04-25 00:10 | -29.62384 | 30.95278 | 8172 ft | 373 kts | 219° |
| 2026-04-25 00:10 | -29.64439 | 30.93471 | 7726 ft | 371 kts | 219° |
| 2026-04-25 00:10 | -29.66486 | 30.91672 | 7296 ft | 370 kts | 219° |
| 2026-04-25 00:11 | -29.68530 | 30.89882 | 6848 ft | 368 kts | 219° |
| 2026-04-25 00:11 | -29.70567 | 30.88098 | 6416 ft | 366 kts | 219° |
| 2026-04-25 00:11 | -29.72580 | 30.86336 | 5975 ft | 362 kts | 219° |
| 2026-04-25 00:11 | -29.74570 | 30.84598 | 5730 ft | 353 kts | 217° |
| 2026-04-25 00:12 | -29.76640 | 30.83195 | 5718 ft | 337 kts | 205° |
| 2026-04-25 00:12 | -29.78827 | 30.82453 | 5712 ft | 322 kts | 188° |
| 2026-04-25 00:12 | -29.80996 | 30.82621 | 5643 ft | 309 kts | 162° |
| 2026-04-25 00:12 | -29.82830 | 30.83859 | 5094 ft | 310 kts | 132° |
| 2026-04-25 00:13 | -29.83855 | 30.85981 | 4775 ft | 301 kts | 100° |
| 2026-04-25 00:13 | -29.83824 | 30.88324 | 4370 ft | 292 kts | 70° |
| 2026-04-25 00:13 | -29.82950 | 30.90415 | 3940 ft | 289 kts | 57° |
| 2026-04-25 00:13 | -29.81944 | 30.92408 | 3525 ft | 287 kts | 58° |
| 2026-04-25 00:14 | -29.80910 | 30.94355 | 3239 ft | 280 kts | 50° |
| 2026-04-25 00:14 | -29.79584 | 30.95918 | 3103 ft | 268 kts | 38° |
| 2026-04-25 00:14 | -29.78137 | 30.97193 | 2996 ft | 256 kts | 35° |
| 2026-04-25 00:14 | -29.76751 | 30.98390 | 2985 ft | 242 kts | 36° |
| 2026-04-25 00:15 | -29.75444 | 30.99527 | 2978 ft | 228 kts | 36° |
| 2026-04-25 00:15 | -29.74249 | 31.00586 | 2969 ft | 206 kts | 36° |
| 2026-04-25 00:15 | -29.73181 | 31.01540 | 2928 ft | 183 kts | 36° |
| 2026-04-25 00:15 | -29.72226 | 31.02379 | 2697 ft | 169 kts | 36° |
| 2026-04-25 00:16 | -29.71319 | 31.03159 | 2446 ft | 156 kts | 35° |
| 2026-04-25 00:16 | -29.70483 | 31.03883 | 2221 ft | 145 kts | 36° |
| 2026-04-25 00:16 | -29.69697 | 31.04564 | 2044 ft | 141 kts | 34° |
| 2026-04-25 00:16 | -29.68906 | 31.05246 | 1863 ft | 143 kts | 35° |
| 2026-04-25 00:17 | -29.68111 | 31.05934 | 1675 ft | 143 kts | 35° |
| 2026-04-25 00:17 | -29.67319 | 31.06620 | 1478 ft | 142 kts | 36° |
| 2026-04-25 00:17 | -29.66530 | 31.07304 | 1288 ft | 142 kts | 36° |
| 2026-04-25 00:17 | -29.65743 | 31.07986 | 1101 ft | 142 kts | 36° |
| 2026-04-25 00:18 | -29.64953 | 31.08669 | 917 ft | 142 kts | 36° |
| 2026-04-25 00:18 | -29.64168 | 31.09349 | 725 ft | 141 kts | 36° |
| 2026-04-25 00:18 | -29.63388 | 31.10023 | 536 ft | 140 kts | 35° |
| 2026-04-25 00:18 | -29.62604 | 31.10691 | 366 ft | 140 kts | 37° |
| 2026-04-25 00:19 | -29.61836 | 31.11341 | 292 ft | 126 kts | 37° |
| 2026-04-25 00:19 | -29.61365 | 31.11762 | 287 ft | 43 kts | 38° |
| 2026-04-25 00:19 | -29.61224 | 31.11888 | 286 ft | 23 kts | 37° |
| 2026-04-25 00:19 | -29.61078 | 31.11997 | 285 ft | 26 kts | 23° |
| 2026-04-25 00:20 | -29.60902 | 31.12036 | 284 ft | 25 kts | 7° |
| 2026-04-25 00:20 | -29.60797 | 31.12053 | 285 ft | 0 kts | 8° |